Maxie, Mississippi
Current Conditions -  °F | °C
As of 12:53 PM on Friday 31 Oct 2014 (Local Time) from KHBG Reporting Station
Clear Clear  
Wind Chill: 72°   Ceiling: Unl
Heat Index: 72°   Visibility: 10mi
Dew Point: 46°   Wind: 13mph
Humidity: 40%   Direction: 330°NNW
Pressure: 30.01"   Gusts: 23mph
Location:  30.9811°N, 89.2354°W
Report Text: KHBG 311753Z AUTO 33011G20KT 10SM CLR 22/08 A3001 RMK AO2 SLP160 T02220078 10222 20061 58012
Loading
Personal Weather Stations






























Interactive Weather Map New forecast layout! Learn more

10-Day Weather Forecast

Advertisements
Track Severe Weather on mobile